createdAt,value
2018-12-05T03:14:30.494Z,1013.29
2018-12-05T03:15:30.461Z,1013.26
2018-12-05T03:17:51.486Z,1013.32
2018-12-05T03:18:59.101Z,1013.31
2018-12-05T03:19:51.446Z,1013.33
2018-12-05T03:20:51.426Z,1013.34
2018-12-05T03:22:00.093Z,1013.34
2018-12-05T03:23:54.882Z,1013.33
2018-12-05T03:24:53.429Z,1013.38
2018-12-05T03:26:39.175Z,1013.44
2018-12-05T03:27:39.132Z,1013.42
2018-12-05T03:28:39.127Z,1013.35
2018-12-05T03:29:39.111Z,1013.36
2018-12-05T03:30:39.106Z,1013.28
2018-12-05T03:31:39.090Z,1013.26
2018-12-05T03:32:39.076Z,1013.24
2018-12-05T03:33:39.083Z,1013.22
2018-12-05T03:34:39.062Z,1013.21
2018-12-05T03:35:44.505Z,1013.19
2018-12-05T03:36:39.044Z,1013.19
2018-12-05T03:37:39.034Z,1013.17
2018-12-05T03:38:39.022Z,1013.18
2018-12-05T03:39:39.038Z,1013.13
2018-12-05T03:40:38.995Z,1013.13
2018-12-05T03:41:39.029Z,1013.12
2018-12-05T03:42:39.007Z,1013.10
2018-12-05T03:43:38.972Z,1013.09
2018-12-05T03:44:38.960Z,1013.08
2018-12-05T03:45:38.946Z,1013.08
2018-12-05T03:46:38.934Z,1013.07
2018-12-05T03:47:38.931Z,1013.06
2018-12-05T03:48:38.925Z,1013.06
2018-12-05T03:49:38.906Z,1013.09
2018-12-05T03:50:38.904Z,1013.09
2018-12-05T03:51:38.911Z,1013.06
2018-12-05T03:52:38.877Z,1013.01
2018-12-05T03:53:38.893Z,1012.97
2018-12-05T03:54:38.862Z,1012.92
2018-12-05T03:55:38.852Z,1012.88
2018-12-05T03:56:38.840Z,1012.90
2018-12-05T03:57:38.835Z,1012.88
2018-12-05T03:58:38.829Z,1012.89
2018-12-05T03:59:38.823Z,1012.90
2018-12-05T04:00:38.802Z,1012.90
2018-12-05T04:01:38.801Z,1012.88
2018-12-05T04:02:38.781Z,1012.91
2018-12-05T04:03:38.776Z,1012.89
2018-12-05T04:04:38.776Z,1012.92
2018-12-05T04:05:38.759Z,1012.94
2018-12-05T04:06:38.747Z,1012.97
2018-12-05T04:07:38.736Z,1012.88
2018-12-05T04:08:38.728Z,1012.88
2018-12-05T04:09:38.726Z,1012.90
2018-12-05T04:10:38.707Z,1012.94
2018-12-05T04:11:38.701Z,1012.93
2018-12-05T04:12:40.717Z,1012.94
2018-12-05T04:13:38.682Z,1012.97
2018-12-05T04:14:38.687Z,1012.95
2018-12-05T04:15:38.656Z,1012.97
2018-12-05T04:16:38.647Z,1012.96
2018-12-05T04:17:38.649Z,1012.98
2018-12-05T04:18:38.639Z,1013.00
2018-12-05T04:19:38.640Z,1013.01
2018-12-05T04:20:38.619Z,1013.03
2018-12-05T04:21:38.604Z,1013.06
2018-12-05T04:22:38.594Z,1013.06
2018-12-05T04:23:38.578Z,1013.07
2018-12-05T04:24:38.591Z,1013.07
2018-12-05T04:25:38.565Z,1013.11
2018-12-05T04:26:38.555Z,1013.10
2018-12-05T04:27:38.547Z,1013.10
2018-12-05T04:28:38.540Z,1013.07
2018-12-05T04:29:38.532Z,1013.11
2018-12-05T04:30:38.525Z,1013.10
2018-12-05T04:31:38.525Z,1013.10
2018-12-05T04:32:38.508Z,1013.08
2018-12-05T04:33:38.492Z,1013.09
2018-12-05T04:34:38.483Z,1013.14
2018-12-05T04:35:38.473Z,1013.11
2018-12-05T04:36:38.462Z,1013.08
2018-12-05T04:37:38.461Z,1013.05
2018-12-05T04:38:38.515Z,1013.05
2018-12-05T04:39:38.435Z,1013.03
2018-12-05T04:40:38.422Z,1013.02
2018-12-05T04:41:38.424Z,1013.00
2018-12-05T04:42:38.414Z,1013.11
2018-12-05T04:43:38.399Z,1013.05
2018-12-05T04:44:38.404Z,1013.08
2018-12-05T04:45:38.375Z,1013.04
2018-12-05T04:46:38.371Z,1013.00
2018-12-05T04:47:38.384Z,1013.01
2018-12-05T04:48:38.353Z,1013.01
2018-12-05T04:49:38.344Z,1013.05
2018-12-05T04:50:38.340Z,1013.04
2018-12-05T04:51:38.342Z,1013.06
2018-12-05T04:52:38.314Z,1013.13
2018-12-05T04:53:38.305Z,1013.12
2018-12-05T04:54:38.291Z,1013.14
2018-12-05T04:55:38.294Z,1013.12
2018-12-05T04:56:38.288Z,1013.14
2018-12-05T04:57:38.270Z,1013.17
2018-12-05T04:58:38.260Z,1013.15
2018-12-05T04:59:38.270Z,1013.12
2018-12-05T05:00:38.255Z,1013.09
2018-12-05T05:01:38.233Z,1013.12
2018-12-05T05:02:38.229Z,1013.08
2018-12-05T05:03:38.212Z,1013.10
2018-12-05T05:04:38.205Z,1013.06
2018-12-05T05:05:38.203Z,1013.10
2018-12-05T05:06:41.643Z,1013.13
2018-12-05T05:07:38.177Z,1013.14
2018-12-05T05:08:38.168Z,1013.14
2018-12-05T05:09:38.166Z,1013.13
2018-12-05T05:10:38.159Z,1013.16
2018-12-05T05:11:38.141Z,1013.17
2018-12-05T05:12:38.129Z,1013.22
2018-12-05T05:13:38.118Z,1013.23
2018-12-05T05:14:38.110Z,1013.25
2018-12-05T05:15:38.110Z,1013.31
2018-12-05T05:16:38.093Z,1013.30
2018-12-05T05:17:38.097Z,1013.31
2018-12-05T05:18:38.071Z,1013.27
2018-12-05T05:19:38.075Z,1013.27
2018-12-05T05:20:38.056Z,1013.22
2018-12-05T05:21:38.050Z,1013.29
2018-12-05T05:22:38.043Z,1013.28
2018-12-05T05:23:38.027Z,1013.30
2018-12-05T05:24:38.023Z,1013.30
2018-12-05T05:25:38.015Z,1013.31
2018-12-05T05:26:38.004Z,1013.31
2018-12-05T05:27:37.995Z,1013.35
2018-12-05T05:28:37.988Z,1013.31
2018-12-05T05:29:37.982Z,1013.29
2018-12-05T05:30:37.974Z,1013.32
2018-12-05T05:31:37.968Z,1013.36
2018-12-05T05:32:37.955Z,1013.33
2018-12-05T05:33:37.939Z,1013.32
2018-12-05T05:34:37.929Z,1013.28
2018-12-05T05:35:37.926Z,1013.29
2018-12-05T05:36:37.923Z,1013.26
2018-12-05T05:37:37.905Z,1013.22
2018-12-05T05:38:37.896Z,1013.26
2018-12-05T05:39:37.881Z,1013.28
2018-12-05T05:40:37.874Z,1013.29
2018-12-05T05:41:37.864Z,1013.31
2018-12-05T05:42:37.873Z,1013.26
2018-12-05T05:43:37.860Z,1013.23
2018-12-05T05:44:37.853Z,1013.19
2018-12-05T05:45:37.835Z,1013.17
2018-12-05T05:46:37.823Z,1013.19
2018-12-05T05:47:37.816Z,1013.19
2018-12-05T05:48:37.808Z,1013.18
2018-12-05T05:49:37.789Z,1013.18
2018-12-05T05:50:46.432Z,1013.20
2018-12-05T05:52:31.194Z,1013.23
2018-12-05T05:53:31.163Z,1013.28
2018-12-05T05:54:31.155Z,1013.30
2018-12-05T05:55:31.158Z,1013.36
2018-12-05T05:56:39.778Z,1013.38
2018-12-05T05:58:33.594Z,1013.45
2018-12-05T05:59:33.145Z,1013.40
2018-12-05T06:01:17.873Z,1013.41
2018-12-05T06:02:17.872Z,1013.41
2018-12-05T06:03:17.851Z,1013.44
2018-12-05T06:04:17.836Z,1013.41
2018-12-05T06:05:17.829Z,1013.38
2018-12-05T06:06:17.819Z,1013.42
2018-12-05T06:07:17.817Z,1013.38
2018-12-05T06:08:17.808Z,1013.36
2018-12-05T06:09:17.800Z,1013.39
2018-12-05T06:10:17.782Z,1013.37
2018-12-05T06:11:17.771Z,1013.35
2018-12-05T06:12:17.769Z,1013.31
2018-12-05T06:13:17.753Z,1013.36
2018-12-05T06:14:17.755Z,1013.36
2018-12-05T06:15:17.749Z,1013.37
2018-12-05T06:16:17.731Z,1013.41
2018-12-05T06:17:17.722Z,1013.38
2018-12-05T06:18:17.712Z,1013.40
2018-12-05T06:19:17.715Z,1013.44
2018-12-05T06:20:17.690Z,1013.42
2018-12-05T06:21:17.690Z,1013.44
2018-12-05T06:22:17.672Z,1013.46
2018-12-05T06:23:17.668Z,1013.47
2018-12-05T06:24:17.646Z,1013.46
2018-12-05T06:25:17.647Z,1013.50
2018-12-05T06:26:17.629Z,1013.50
2018-12-05T06:27:17.626Z,1013.54
2018-12-05T06:28:17.611Z,1013.51
2018-12-05T06:29:17.610Z,1013.51
2018-12-05T06:30:17.593Z,1013.49
2018-12-05T06:31:17.638Z,1013.47
2018-12-05T06:32:17.614Z,1013.41
2018-12-05T06:33:17.569Z,1013.41
2018-12-05T06:34:17.563Z,1013.46
2018-12-05T06:35:17.559Z,1013.42
2018-12-05T06:36:17.545Z,1013.43
2018-12-05T06:37:17.559Z,1013.43
2018-12-05T06:38:17.545Z,1013.41
2018-12-05T06:39:17.511Z,1013.44
2018-12-05T06:40:17.505Z,1013.49
2018-12-05T06:41:17.498Z,1013.48
2018-12-05T06:42:17.516Z,1013.48
2018-12-05T06:43:17.483Z,1013.48
2018-12-05T06:44:17.465Z,1013.51
2018-12-05T06:45:17.456Z,1013.49
2018-12-05T06:46:17.449Z,1013.49
2018-12-05T06:47:17.444Z,1013.48
2018-12-05T06:48:17.441Z,1013.49
2018-12-05T06:49:17.424Z,1013.53
2018-12-05T06:50:17.412Z,1013.50
2018-12-05T06:51:17.410Z,1013.50
2018-12-05T06:52:17.394Z,1013.52
2018-12-05T06:53:17.383Z,1013.56
2018-12-05T06:54:17.389Z,1013.61
2018-12-05T06:55:17.374Z,1013.59
2018-12-05T06:56:17.366Z,1013.57
2018-12-05T06:57:17.379Z,1013.51
2018-12-05T06:58:17.358Z,1013.51
2018-12-05T06:59:17.370Z,1013.53
2018-12-05T07:00:17.324Z,1013.56
2018-12-05T07:01:17.319Z,1013.56
2018-12-05T07:02:17.319Z,1013.57
2018-12-05T07:03:17.332Z,1013.55
2018-12-05T07:04:17.296Z,1013.50
2018-12-05T07:05:17.274Z,1013.49
2018-12-05T07:06:17.263Z,1013.43
2018-12-05T07:07:17.707Z,1013.36
2018-12-05T07:08:17.251Z,1013.37
2018-12-05T07:09:17.247Z,1013.31
2018-12-05T07:10:17.257Z,1013.33
2018-12-05T07:11:17.226Z,1013.32
2018-12-05T07:12:17.205Z,1013.32
2018-12-05T07:13:17.211Z,1013.33
2018-12-05T07:14:17.197Z,1013.31
2018-12-05T07:15:17.184Z,1013.28
2018-12-05T07:16:17.201Z,1013.31
2018-12-05T07:17:17.166Z,1013.32
2018-12-05T07:18:17.218Z,1013.25
2018-12-05T07:19:17.233Z,1013.26
2018-12-05T07:20:17.181Z,1013.34
2018-12-05T07:21:17.275Z,1013.41
2018-12-05T07:22:17.129Z,1013.43
2018-12-05T07:23:17.157Z,1013.46
2018-12-05T07:24:26.940Z,1013.45
2018-12-05T07:26:10.486Z,1013.41
2018-12-05T07:27:10.458Z,1013.40
2018-12-05T07:28:10.485Z,1013.35
2018-12-05T07:29:10.447Z,1013.38
2018-12-05T07:30:10.434Z,1013.37
2018-12-05T07:31:10.430Z,1013.41
2018-12-05T07:32:10.426Z,1013.43
2018-12-05T07:33:10.406Z,1013.42
2018-12-05T07:34:10.407Z,1013.47
2018-12-05T07:35:10.387Z,1013.49
2018-12-05T07:36:10.381Z,1013.47
2018-12-05T07:37:10.364Z,1013.49
2018-12-05T07:38:10.366Z,1013.44
2018-12-05T07:39:10.383Z,1013.44
2018-12-05T07:40:10.342Z,1013.45
2018-12-05T07:41:10.348Z,1013.39
2018-12-05T07:42:10.324Z,1013.44
2018-12-05T07:43:10.319Z,1013.47
2018-12-05T07:44:10.325Z,1013.53
2018-12-05T07:45:10.296Z,1013.58
2018-12-05T07:46:10.286Z,1013.59
2018-12-05T07:47:10.276Z,1013.57
2018-12-05T07:48:10.279Z,1013.56
2018-12-05T07:49:10.256Z,1013.52
2018-12-05T07:50:10.247Z,1013.44
2018-12-05T07:51:10.245Z,1013.41
2018-12-05T07:52:10.246Z,1013.38
2018-12-05T07:53:10.218Z,1013.39
2018-12-05T07:54:10.211Z,1013.45
2018-12-05T07:55:10.201Z,1013.41
2018-12-05T07:56:10.192Z,1013.41
2018-12-05T07:57:10.180Z,1013.45
2018-12-05T07:58:10.181Z,1013.50
2018-12-05T07:59:10.160Z,1013.52
2018-12-05T08:00:10.158Z,1013.53
2018-12-05T08:01:10.163Z,1013.57
2018-12-05T08:02:10.148Z,1013.59
2018-12-05T08:03:10.128Z,1013.56
2018-12-05T08:04:10.125Z,1013.50
2018-12-05T08:05:10.104Z,1013.57
2018-12-05T08:06:10.098Z,1013.54
2018-12-05T08:07:10.097Z,1013.46
2018-12-05T08:08:10.085Z,1013.46
2018-12-05T08:09:10.073Z,1013.47
2018-12-05T08:10:10.068Z,1013.47
2018-12-05T08:11:10.052Z,1013.45
2018-12-05T08:12:10.044Z,1013.42
2018-12-05T08:13:10.039Z,1013.44
2018-12-05T08:14:10.035Z,1013.50
2018-12-05T08:15:10.017Z,1013.55
2018-12-05T08:16:10.012Z,1013.53
2018-12-05T08:17:09.996Z,1013.55
2018-12-05T08:18:09.993Z,1013.52
2018-12-05T08:19:09.987Z,1013.48
2018-12-05T08:20:09.975Z,1013.48
2018-12-05T08:21:09.974Z,1013.50
2018-12-05T08:22:09.971Z,1013.47
2018-12-05T08:23:09.966Z,1013.47
2018-12-05T08:24:09.943Z,1013.49
2018-12-05T08:25:09.927Z,1013.47
2018-12-05T08:26:09.918Z,1013.46
2018-12-05T08:27:09.910Z,1013.52
2018-12-05T08:28:09.900Z,1013.54
2018-12-05T08:29:09.890Z,1013.54
2018-12-05T08:30:18.554Z,1013.54
2018-12-05T08:32:05.434Z,1013.55
2018-12-05T08:33:04.258Z,1013.57
2018-12-05T08:34:04.247Z,1013.64
2018-12-05T08:35:04.230Z,1013.60
2018-12-05T08:36:04.221Z,1013.62
2018-12-05T08:37:04.207Z,1013.61
2018-12-05T08:38:04.202Z,1013.62
2018-12-05T08:39:04.195Z,1013.61
2018-12-05T08:40:04.185Z,1013.58
2018-12-05T08:41:04.184Z,1013.57
2018-12-05T08:42:04.170Z,1013.55
2018-12-05T08:43:04.169Z,1013.53
2018-12-05T08:44:04.160Z,1013.55
2018-12-05T08:45:04.147Z,1013.54
2018-12-05T08:46:04.138Z,1013.54
2018-12-05T08:47:04.126Z,1013.54
2018-12-05T08:48:04.120Z,1013.52
2018-12-05T08:49:04.105Z,1013.54
2018-12-05T08:50:04.094Z,1013.54
2018-12-05T08:51:04.090Z,1013.61
2018-12-05T08:52:04.077Z,1013.62
2018-12-05T08:53:04.076Z,1013.60
2018-12-05T08:54:04.073Z,1013.63
2018-12-05T08:55:04.062Z,1013.64
2018-12-05T08:56:04.048Z,1013.63
2018-12-05T08:57:04.053Z,1013.67
2018-12-05T08:58:04.035Z,1013.67
2018-12-05T08:59:04.021Z,1013.64
2018-12-05T09:00:04.023Z,1013.58
2018-12-05T09:01:04.004Z,1013.60
2018-12-05T09:02:03.997Z,1013.63
2018-12-05T09:03:03.991Z,1013.57
2018-12-05T09:04:03.971Z,1013.59
2018-12-05T09:05:03.961Z,1013.57
2018-12-05T09:06:03.955Z,1013.56
2018-12-05T09:07:03.947Z,1013.56
2018-12-05T09:08:03.943Z,1013.50
2018-12-05T09:09:03.936Z,1013.57
2018-12-05T09:10:03.933Z,1013.58
2018-12-05T09:11:03.917Z,1013.58
2018-12-05T09:12:03.907Z,1013.54
2018-12-05T09:13:03.894Z,1013.56
2018-12-05T09:14:03.891Z,1013.57
2018-12-05T09:15:03.884Z,1013.55
2018-12-05T09:16:03.875Z,1013.62
2018-12-05T09:17:03.859Z,1013.61
2018-12-05T09:18:03.857Z,1013.62
2018-12-05T09:19:03.844Z,1013.67
2018-12-05T09:20:03.880Z,1013.64
2018-12-05T09:21:03.830Z,1013.66
2018-12-05T09:22:03.819Z,1013.67
2018-12-05T09:23:03.816Z,1013.66
2018-12-05T09:24:03.824Z,1013.68
2018-12-05T09:25:03.789Z,1013.64
2018-12-05T09:26:03.795Z,1013.64
2018-12-05T09:27:03.834Z,1013.62
2018-12-05T09:28:03.775Z,1013.65
2018-12-05T09:29:03.762Z,1013.66
2018-12-05T09:30:03.758Z,1013.68
2018-12-05T09:31:03.754Z,1013.65
2018-12-05T09:32:03.758Z,1013.63
2018-12-05T09:33:03.726Z,1013.64
2018-12-05T09:34:03.721Z,1013.62
2018-12-05T09:35:03.725Z,1013.61
2018-12-05T09:36:03.707Z,1013.58
2018-12-05T09:37:03.701Z,1013.53
2018-12-05T09:38:03.694Z,1013.49
2018-12-05T09:39:03.680Z,1013.45
2018-12-05T09:40:03.675Z,1013.44
2018-12-05T09:41:03.660Z,1013.40
2018-12-05T09:42:03.665Z,1013.41
2018-12-05T09:43:03.648Z,1013.40
2018-12-05T09:44:03.647Z,1013.43
2018-12-05T09:45:03.642Z,1013.41
2018-12-05T09:46:03.621Z,1013.41
2018-12-05T09:47:03.614Z,1013.44
2018-12-05T09:48:03.617Z,1013.43
2018-12-05T09:49:03.609Z,1013.45
2018-12-05T09:50:03.603Z,1013.45
2018-12-05T09:51:03.592Z,1013.40
2018-12-05T09:52:03.598Z,1013.42
2018-12-05T09:53:03.608Z,1013.36
2018-12-05T09:54:03.567Z,1013.37
2018-12-05T09:55:03.553Z,1013.36
2018-12-05T09:56:03.578Z,1013.35
2018-12-05T09:57:03.545Z,1013.34
2018-12-05T09:58:03.557Z,1013.38
2018-12-05T09:59:03.557Z,1013.37
2018-12-05T10:00:03.513Z,1013.38
2018-12-05T10:01:03.517Z,1013.37
2018-12-05T10:02:03.499Z,1013.34
2018-12-05T10:03:03.499Z,1013.35
2018-12-05T10:04:03.478Z,1013.33
2018-12-05T10:05:03.475Z,1013.30
2018-12-05T10:06:03.487Z,1013.32
2018-12-05T10:07:03.460Z,1013.21
2018-12-05T10:08:03.445Z,1013.16
2018-12-05T10:09:03.435Z,1013.15
2018-12-05T10:10:03.424Z,1013.11
2018-12-05T10:11:03.422Z,1013.10
2018-12-05T10:12:03.426Z,1013.07
2018-12-05T10:13:03.406Z,1013.05
2018-12-05T10:14:03.443Z,1013.06
2018-12-05T10:15:03.465Z,1013.00
2018-12-05T10:16:03.397Z,1013.04
2018-12-05T10:17:03.371Z,1013.03
2018-12-05T10:18:03.371Z,1012.99
2018-12-05T10:19:03.391Z,1012.98
2018-12-05T10:20:03.350Z,1013.01
2018-12-05T10:21:03.339Z,1013.02
2018-12-05T10:22:03.330Z,1013.00
2018-12-05T10:23:03.323Z,1013.02
2018-12-05T10:24:03.327Z,1012.98
2018-12-05T10:25:03.315Z,1012.95
2018-12-05T10:26:03.321Z,1012.93
2018-12-05T10:27:03.294Z,1012.93
2018-12-05T10:28:03.290Z,1012.91
2018-12-05T10:29:03.280Z,1012.94
2018-12-05T10:30:03.267Z,1012.90
2018-12-05T10:31:03.264Z,1012.88
2018-12-05T10:32:04.993Z,1012.87
2018-12-05T10:33:03.237Z,1012.83
2018-12-05T10:34:03.248Z,1012.83
2018-12-05T10:35:03.237Z,1012.86
2018-12-05T10:36:03.220Z,1012.79
2018-12-05T10:37:03.218Z,1012.81
2018-12-05T10:38:03.214Z,1012.75
2018-12-05T10:39:03.253Z,1012.71
2018-12-05T10:40:03.201Z,1012.67
2018-12-05T10:41:03.182Z,1012.64
2018-12-05T10:42:03.235Z,1012.60
2018-12-05T10:43:03.193Z,1012.57
2018-12-05T10:44:03.160Z,1012.57
2018-12-05T10:45:03.155Z,1012.51
2018-12-05T10:46:03.137Z,1012.48
2018-12-05T10:47:03.155Z,1012.48
2018-12-05T10:48:03.136Z,1012.45
2018-12-05T10:49:03.114Z,1012.46
2018-12-05T10:50:03.116Z,1012.47
2018-12-05T10:51:03.122Z,1012.47
2018-12-05T10:52:03.117Z,1012.50
2018-12-05T10:53:03.088Z,1012.50
2018-12-05T10:54:03.086Z,1012.51
2018-12-05T10:55:03.072Z,1012.50
2018-12-05T10:56:03.070Z,1012.55
2018-12-05T10:57:03.051Z,1012.52
2018-12-05T10:58:12.337Z,1012.52
2018-12-05T11:00:04.270Z,1012.57
2018-12-05T11:00:56.422Z,1012.56
2018-12-05T11:01:56.435Z,1012.57
2018-12-05T11:02:56.420Z,1012.56
2018-12-05T11:03:56.395Z,1012.56
2018-12-05T11:06:17.463Z,1012.52
2018-12-05T11:07:17.415Z,1012.54
2018-12-05T11:09:11.390Z,1012.53
2018-12-05T11:10:10.995Z,1012.53
2018-12-05T11:11:10.981Z,1012.52
2018-12-05T11:12:10.984Z,1012.55
2018-12-05T11:13:10.992Z,1012.52
2018-12-05T11:14:10.960Z,1012.54
2018-12-05T11:15:10.959Z,1012.53
2018-12-05T11:16:10.968Z,1012.51
2018-12-05T11:17:10.958Z,1012.52
2018-12-05T11:18:10.955Z,1012.49
2018-12-05T11:19:10.965Z,1012.45
2018-12-05T11:20:10.921Z,1012.44
2018-12-05T11:21:10.906Z,1012.40
2018-12-05T11:22:10.916Z,1012.39
2018-12-05T11:23:10.895Z,1012.40
2018-12-05T11:24:10.936Z,1012.45
2018-12-05T11:25:10.879Z,1012.42
2018-12-05T11:26:10.883Z,1012.42
2018-12-05T11:27:10.887Z,1012.41
2018-12-05T11:28:10.863Z,1012.39
2018-12-05T11:29:10.873Z,1012.38
2018-12-05T11:30:10.863Z,1012.41
2018-12-05T11:31:10.861Z,1012.35
2018-12-05T11:32:10.841Z,1012.26
2018-12-05T11:33:10.828Z,1012.26
2018-12-05T11:34:10.834Z,1012.26
2018-12-05T11:35:10.819Z,1012.26
2018-12-05T11:36:10.806Z,1012.23
2018-12-05T11:37:10.796Z,1012.19
2018-12-05T11:38:10.831Z,1012.22
2018-12-05T11:39:10.789Z,1012.18
2018-12-05T11:40:10.774Z,1012.17
2018-12-05T11:41:10.772Z,1012.17
2018-12-05T11:42:10.781Z,1012.19
2018-12-05T11:43:10.760Z,1012.17
2018-12-05T11:44:10.750Z,1012.16
2018-12-05T11:45:10.751Z,1012.15
2018-12-05T11:46:10.742Z,1012.13
2018-12-05T11:47:10.742Z,1012.14
2018-12-05T11:48:10.731Z,1012.17
2018-12-05T11:49:10.725Z,1012.12
2018-12-05T11:50:10.726Z,1012.07
2018-12-05T11:51:10.710Z,1012.08
2018-12-05T11:52:10.697Z,1012.05
2018-12-05T11:53:10.709Z,1012.04
2018-12-05T11:54:10.710Z,1012.04
2018-12-05T11:55:10.683Z,1012.06
2018-12-05T11:56:10.698Z,1012.04
2018-12-05T11:57:10.688Z,1012.01
2018-12-05T11:58:10.661Z,1011.96
2018-12-05T11:59:10.646Z,1011.94
2018-12-05T12:00:10.660Z,1011.92
2018-12-05T12:01:10.637Z,1011.83
2018-12-05T12:02:10.633Z,1011.82
2018-12-05T12:03:10.637Z,1011.76
2018-12-05T12:04:10.623Z,1011.68
2018-12-05T12:05:10.628Z,1011.68
2018-12-05T12:06:10.603Z,1011.65
2018-12-05T12:07:10.602Z,1011.64
2018-12-05T12:08:10.587Z,1011.68
2018-12-05T12:09:10.582Z,1011.62
2018-12-05T12:10:10.574Z,1011.59
2018-12-05T12:11:10.577Z,1011.58
2018-12-05T12:12:10.564Z,1011.54
2018-12-05T12:13:10.590Z,1011.50
2018-12-05T12:14:10.553Z,1011.52
2018-12-05T12:15:10.543Z,1011.51
2018-12-05T12:16:10.541Z,1011.49
2018-12-05T12:17:10.543Z,1011.48
2018-12-05T12:18:10.529Z,1011.46
2018-12-05T12:19:10.531Z,1011.43
2018-12-05T12:20:10.535Z,1011.40
2018-12-05T12:21:10.501Z,1011.35
2018-12-05T12:22:10.503Z,1011.38
2018-12-05T12:23:10.493Z,1011.35
2018-12-05T12:24:10.500Z,1011.39
2018-12-05T12:25:10.484Z,1011.41
2018-12-05T12:26:10.474Z,1011.39
2018-12-05T12:27:10.470Z,1011.42
2018-12-05T12:28:10.460Z,1011.40
2018-12-05T12:29:10.450Z,1011.35
2018-12-05T12:30:15.934Z,1011.33
2018-12-05T12:31:10.461Z,1011.30
2018-12-05T12:32:10.431Z,1011.26
2018-12-05T12:33:10.427Z,1011.25
2018-12-05T12:34:10.431Z,1011.20
2018-12-05T12:35:10.437Z,1011.22
2018-12-05T12:36:10.406Z,1011.16
2018-12-05T12:37:10.414Z,1011.18
2018-12-05T12:38:10.398Z,1011.14
2018-12-05T12:39:10.396Z,1011.15
2018-12-05T12:40:10.379Z,1011.11
2018-12-05T12:41:10.388Z,1011.09
2018-12-05T12:42:10.370Z,1011.07
2018-12-05T12:43:10.358Z,1011.07
2018-12-05T12:44:10.368Z,1011.06
2018-12-05T12:45:10.367Z,1011.03
2018-12-05T12:46:10.339Z,1011.06
2018-12-05T12:47:10.338Z,1011.07
2018-12-05T12:48:10.333Z,1011.03
2018-12-05T12:49:10.316Z,1011.03
2018-12-05T12:50:10.327Z,1011.05
2018-12-05T12:51:10.325Z,1011.04
2018-12-05T12:52:10.302Z,1011.02
2018-12-05T12:53:10.304Z,1010.98
2018-12-05T12:54:10.283Z,1010.96
2018-12-05T12:55:10.284Z,1010.96
2018-12-05T12:56:10.275Z,1010.96
2018-12-05T12:57:10.279Z,1010.95
2018-12-05T12:58:10.272Z,1010.93
2018-12-05T12:59:10.275Z,1010.93
2018-12-05T13:00:10.266Z,1010.90
2018-12-05T13:01:10.235Z,1010.90
2018-12-05T13:02:10.234Z,1010.91
2018-12-05T13:03:10.230Z,1010.84
2018-12-05T13:04:10.232Z,1010.82
2018-12-05T13:05:10.218Z,1010.77
2018-12-05T13:06:10.207Z,1010.74
2018-12-05T13:07:10.227Z,1010.71
2018-12-05T13:08:10.201Z,1010.72
2018-12-05T13:09:10.184Z,1010.69
2018-12-05T13:10:10.177Z,1010.70
2018-12-05T13:11:10.199Z,1010.66
2018-12-05T13:12:10.172Z,1010.65
2018-12-05T13:13:10.165Z,1010.62
2018-12-05T13:14:10.157Z,1010.66
2018-12-05T13:15:10.159Z,1010.66
2018-12-05T13:16:10.164Z,1010.67
2018-12-05T13:17:10.133Z,1010.66
2018-12-05T13:18:10.124Z,1010.66
2018-12-05T13:19:10.120Z,1010.64
2018-12-05T13:20:10.170Z,1010.60
2018-12-05T13:21:10.141Z,1010.60
2018-12-05T13:22:10.135Z,1010.57
2018-12-05T13:23:10.091Z,1010.59
2018-12-05T13:24:10.080Z,1010.53
2018-12-05T13:25:10.079Z,1010.52
2018-12-05T13:26:10.070Z,1010.50
2018-12-05T13:27:10.090Z,1010.48
2018-12-05T13:28:10.069Z,1010.44
2018-12-05T13:29:10.069Z,1010.44
2018-12-05T13:30:10.054Z,1010.40
2018-12-05T13:31:10.057Z,1010.40
2018-12-05T13:32:18.677Z,1010.39
2018-12-05T13:34:03.489Z,1010.36
2018-12-05T13:35:03.520Z,1010.31
2018-12-05T13:36:03.466Z,1010.30
2018-12-05T13:37:03.464Z,1010.32
2018-12-05T13:38:03.443Z,1010.32
2018-12-05T13:39:03.436Z,1010.29
2018-12-05T13:40:03.433Z,1010.29
2018-12-05T13:41:03.441Z,1010.27
2018-12-05T13:42:03.426Z,1010.22
2018-12-05T13:43:03.423Z,1010.21
2018-12-05T13:44:03.420Z,1010.22
2018-12-05T13:45:03.432Z,1010.19
2018-12-05T13:46:03.421Z,1010.18
2018-12-05T13:47:03.402Z,1010.14
2018-12-05T13:48:03.414Z,1010.11
2018-12-05T13:49:03.379Z,1010.11
2018-12-05T13:50:03.367Z,1010.13
2018-12-05T13:51:03.372Z,1010.09
2018-12-05T13:52:03.352Z,1010.07
2018-12-05T13:53:03.351Z,1010.10
2018-12-05T13:54:03.342Z,1010.11
2018-12-05T13:55:03.351Z,1010.06
2018-12-05T13:56:03.333Z,1010.00
2018-12-05T13:57:03.319Z,1010.02
2018-12-05T13:58:03.321Z,1010.01
2018-12-05T13:59:03.329Z,1010.00
2018-12-05T14:00:03.306Z,1009.98
2018-12-05T14:01:03.328Z,1010.04
2018-12-05T14:02:03.290Z,1009.99
2018-12-05T14:03:03.295Z,1009.98
2018-12-05T14:04:03.350Z,1009.98
2018-12-05T14:05:03.283Z,1010.00
2018-12-05T14:06:03.294Z,1009.96
2018-12-05T14:07:03.276Z,1009.97
2018-12-05T14:08:03.328Z,1009.94
2018-12-05T14:09:03.254Z,1009.94
2018-12-05T14:10:03.230Z,1009.94
2018-12-05T14:11:03.248Z,1009.91
2018-12-05T14:12:03.220Z,1009.92
2018-12-05T14:13:03.216Z,1009.88
2018-12-05T14:14:03.205Z,1009.84
2018-12-05T14:15:03.201Z,1009.87
2018-12-05T14:16:03.203Z,1009.83
2018-12-05T14:17:03.196Z,1009.83
2018-12-05T14:18:03.363Z,1009.81
2018-12-05T14:19:03.186Z,1009.79
2018-12-05T14:20:03.194Z,1009.83
2018-12-05T14:21:03.165Z,1009.82
2018-12-05T14:22:03.178Z,1009.86
2018-12-05T14:23:03.169Z,1009.86
2018-12-05T14:24:03.147Z,1009.83
2018-12-05T14:25:03.145Z,1009.83
2018-12-05T14:26:03.144Z,1009.83
2018-12-05T14:27:03.128Z,1009.83
2018-12-05T14:28:03.126Z,1009.81
2018-12-05T14:29:03.109Z,1009.77
2018-12-05T14:30:03.100Z,1009.77
2018-12-05T14:31:03.103Z,1009.77
2018-12-05T14:32:03.096Z,1009.74
2018-12-05T14:33:03.091Z,1009.72
2018-12-05T14:34:03.094Z,1009.75
2018-12-05T14:35:03.071Z,1009.70
2018-12-05T14:36:03.069Z,1009.67
2018-12-05T14:37:03.071Z,1009.67
2018-12-05T14:38:03.062Z,1009.70
2018-12-05T14:39:03.058Z,1009.69
2018-12-05T14:40:03.045Z,1009.67
2018-12-05T14:41:03.037Z,1009.67
2018-12-05T14:42:03.038Z,1009.71
2018-12-05T14:43:03.033Z,1009.72
2018-12-05T14:44:03.025Z,1009.75
2018-12-05T14:45:03.022Z,1009.71
2018-12-05T14:46:03.011Z,1009.71
2018-12-05T14:47:02.995Z,1009.68
2018-12-05T14:48:02.990Z,1009.64
2018-12-05T14:49:02.984Z,1009.62
2018-12-05T14:50:03.060Z,1009.58
2018-12-05T14:51:02.975Z,1009.55
2018-12-05T14:52:02.974Z,1009.52
2018-12-05T14:53:02.967Z,1009.54
2018-12-05T14:54:02.949Z,1009.53
2018-12-05T14:55:02.954Z,1009.48
2018-12-05T14:56:02.947Z,1009.49
2018-12-05T14:57:02.935Z,1009.49
2018-12-05T14:58:02.939Z,1009.45
2018-12-05T14:59:02.934Z,1009.50
2018-12-05T15:00:02.914Z,1009.45
2018-12-05T15:01:02.922Z,1009.42
2018-12-05T15:02:02.915Z,1009.41
2018-12-05T15:03:04.345Z,1009.39
2018-12-05T15:04:02.904Z,1009.35
2018-12-05T15:05:02.887Z,1009.31
2018-12-05T15:06:02.879Z,1009.30
2018-12-05T15:07:02.869Z,1009.28
2018-12-05T15:08:02.861Z,1009.28
2018-12-05T15:09:02.861Z,1009.34
2018-12-05T15:10:02.894Z,1009.30
2018-12-05T15:11:02.845Z,1009.34
2018-12-05T15:12:02.839Z,1009.30
2018-12-05T15:13:02.860Z,1009.36
2018-12-05T15:14:02.827Z,1009.29
2018-12-05T15:15:02.819Z,1009.29
2018-12-05T15:16:02.834Z,1009.24
2018-12-05T15:17:02.805Z,1009.26
2018-12-05T15:18:02.805Z,1009.21
2018-12-05T15:19:02.805Z,1009.21
2018-12-05T15:20:02.787Z,1009.24
2018-12-05T15:21:02.779Z,1009.23
2018-12-05T15:22:02.795Z,1009.19
2018-12-05T15:23:02.777Z,1009.19
2018-12-05T15:24:02.758Z,1009.14
2018-12-05T15:25:02.759Z,1009.17
2018-12-05T15:26:02.836Z,1009.17
2018-12-05T15:27:02.746Z,1009.16
2018-12-05T15:28:02.739Z,1009.15
2018-12-05T15:29:02.734Z,1009.11
2018-12-05T15:30:02.735Z,1009.11
2018-12-05T15:31:02.815Z,1009.15